createdAt,value
2023-01-13T00:01:56.343Z,47.13
2023-01-13T00:04:26.682Z,46.40
2023-01-13T00:06:57.100Z,32.47
2023-01-13T00:09:27.513Z,39.63
2023-01-13T00:11:58.254Z,35.13
2023-01-13T00:14:30.651Z,30.90
2023-01-13T00:17:02.283Z,24.97
2023-01-13T00:19:32.521Z,21.00
2023-01-13T00:22:02.713Z,25.63
2023-01-13T00:24:32.742Z,20.90
2023-01-13T00:27:02.958Z,21.17
2023-01-13T00:29:33.084Z,19.77
2023-01-13T00:32:04.938Z,18.80
2023-01-13T00:34:35.567Z,19.73
2023-01-13T00:37:05.784Z,21.97
2023-01-13T00:39:35.823Z,21.97
2023-01-13T00:42:23.121Z,23.53
2023-01-13T00:44:53.258Z,23.67
2023-01-13T00:47:25.196Z,22.70
2023-01-13T00:49:55.633Z,24.23
2023-01-13T00:52:25.858Z,25.50
2023-01-13T00:54:56.384Z,23.33
2023-01-13T00:57:26.608Z,22.07
2023-01-13T00:59:56.829Z,19.57
2023-01-13T01:02:32.242Z,18.73
2023-01-13T01:05:02.599Z,18.83
2023-01-13T01:07:33.014Z,21.30
2023-01-13T01:10:03.545Z,22.03
2023-01-13T01:12:33.461Z,17.87
2023-01-13T01:15:03.895Z,17.10
2023-01-13T01:17:35.954Z,16.37
2023-01-13T01:20:07.402Z,17.37
2023-01-13T01:22:37.627Z,16.93
2023-01-13T01:25:08.874Z,15.63
2023-01-13T01:27:39.093Z,18.17
2023-01-13T01:30:10.762Z,19.07
2023-01-13T01:32:42.713Z,20.97
2023-01-13T01:35:13.250Z,16.83
2023-01-13T01:37:43.364Z,16.43
2023-01-13T01:40:14.595Z,15.53
2023-01-13T01:43:01.839Z,15.53
2023-01-13T01:45:33.375Z,18.17
2023-01-13T01:48:07.895Z,15.83
2023-01-13T01:50:39.045Z,15.33
2023-01-13T01:53:15.309Z,16.50
2023-01-13T01:55:45.733Z,17.67
2023-01-13T01:58:21.595Z,14.40
2023-01-13T02:00:52.186Z,14.73
2023-01-13T02:03:24.682Z,15.87
2023-01-13T02:05:55.136Z,15.60
2023-01-13T02:08:25.536Z,14.30
2023-01-13T02:10:56.989Z,14.50
2023-01-13T02:13:26.797Z,14.60
2023-01-13T02:16:05.141Z,14.17
2023-01-13T02:18:50.539Z,13.93
2023-01-13T02:21:49.791Z,14.73
2023-01-13T02:24:54.886Z,15.50
2023-01-13T02:28:08.888Z,14.70
2023-01-13T02:31:08.805Z,12.77
2023-01-13T02:34:01.056Z,14.87
2023-01-13T02:36:41.136Z,13.70
2023-01-13T02:39:18.576Z,12.80
2023-01-13T02:42:09.600Z,14.33
2023-01-13T02:44:46.475Z,13.43
2023-01-13T02:47:21.815Z,14.47
2023-01-13T02:49:55.003Z,18.20
2023-01-13T02:52:32.086Z,16.27
2023-01-13T02:55:08.551Z,16.40
2023-01-13T02:57:40.515Z,16.93
2023-01-13T03:00:14.426Z,14.47
2023-01-13T03:02:47.230Z,13.70
2023-01-13T03:05:18.459Z,13.50
2023-01-13T03:08:18.461Z,14.70
2023-01-13T03:11:05.929Z,13.73
2023-01-13T03:14:04.290Z,13.80
2023-01-13T03:16:48.050Z,13.63
2023-01-13T03:19:39.128Z,14.00
2023-01-13T03:22:20.507Z,13.93
2023-01-13T03:24:54.922Z,13.53
2023-01-13T03:27:28.840Z,14.40
2023-01-13T03:30:02.737Z,13.77
2023-01-13T03:32:37.054Z,13.70
2023-01-13T03:35:14.857Z,13.93
2023-01-13T03:37:49.276Z,14.03
2023-01-13T03:40:24.731Z,13.93
2023-01-13T03:43:20.546Z,13.60
2023-01-13T03:45:57.580Z,13.50
2023-01-13T03:48:30.503Z,15.03
2023-01-13T03:51:09.536Z,14.60
2023-01-13T03:53:43.936Z,13.80
2023-01-13T03:56:20.110Z,13.50
2023-01-13T03:58:55.031Z,13.83
2023-01-13T04:01:28.553Z,13.43
2023-01-13T04:04:05.396Z,14.33
2023-01-13T04:06:44.256Z,14.50
2023-01-13T04:09:22.349Z,14.20
2023-01-13T04:11:58.019Z,13.87
2023-01-13T04:14:29.768Z,13.97
2023-01-13T04:17:00.284Z,17.83
2023-01-13T04:19:30.403Z,15.50
2023-01-13T04:22:02.464Z,14.70
2023-01-13T04:24:32.494Z,14.43
2023-01-13T04:27:02.604Z,13.80
2023-01-13T04:29:32.733Z,12.40
2023-01-13T04:32:03.255Z,13.57
2023-01-13T04:34:33.467Z,14.23
2023-01-13T04:37:05.327Z,14.13
2023-01-13T04:39:35.685Z,13.33
2023-01-13T04:42:06.282Z,13.87
2023-01-13T04:44:37.165Z,11.57
2023-01-13T04:47:07.862Z,11.50
2023-01-13T04:49:38.076Z,11.10
2023-01-13T04:52:10.344Z,11.00
2023-01-13T04:54:40.382Z,11.57
2023-01-13T04:57:10.896Z,11.30
2023-01-13T04:59:42.543Z,11.07
2023-01-13T05:02:20.283Z,10.47
2023-01-13T05:04:51.526Z,10.13
2023-01-13T05:07:23.159Z,10.63
2023-01-13T05:09:53.191Z,10.03
2023-01-13T05:12:39.988Z,10.67
2023-01-13T05:15:29.032Z,10.87
2023-01-13T05:17:58.994Z,10.40
2023-01-13T05:20:29.507Z,11.43
2023-01-13T05:23:18.755Z,10.70
2023-01-13T05:25:50.927Z,10.83
2023-01-13T05:28:21.180Z,10.90
2023-01-13T05:30:53.931Z,11.47
2023-01-13T05:33:23.944Z,10.87
2023-01-13T05:35:54.168Z,11.33
2023-01-13T05:38:26.016Z,10.10
2023-01-13T05:41:28.094Z,10.77
2023-01-13T05:43:58.410Z,12.23
2023-01-13T05:46:28.567Z,10.50
2023-01-13T05:49:01.464Z,10.83
2023-01-13T05:51:31.536Z,11.73
2023-01-13T05:54:05.479Z,12.00
2023-01-13T05:56:35.652Z,14.60
2023-01-13T05:59:05.788Z,13.53
2023-01-13T06:01:37.533Z,13.77
2023-01-13T06:04:08.388Z,13.17
2023-01-13T06:06:38.591Z,11.80
2023-01-13T06:09:11.183Z,11.30
2023-01-13T06:11:41.291Z,12.73
2023-01-13T06:14:12.420Z,14.30
2023-01-13T06:16:43.582Z,17.93
2023-01-13T06:19:15.245Z,20.57
2023-01-13T06:21:46.159Z,18.13
2023-01-13T06:24:18.231Z,18.47
2023-01-13T06:26:48.753Z,17.83
2023-01-13T06:29:19.705Z,19.37
2023-01-13T06:31:50.053Z,17.17
2023-01-13T06:34:20.543Z,19.60
2023-01-13T06:36:56.506Z,18.90
2023-01-13T06:39:31.664Z,18.13
2023-01-13T06:42:19.574Z,15.50
2023-01-13T06:44:49.623Z,18.00
2023-01-13T06:47:22.890Z,17.97
2023-01-13T06:49:53.940Z,21.70
2023-01-13T06:52:25.077Z,17.63
2023-01-13T06:54:56.841Z,18.83
2023-01-13T06:57:27.475Z,16.47
2023-01-13T06:59:57.807Z,23.40
2023-01-13T07:02:28.920Z,20.87
2023-01-13T07:04:59.872Z,16.77
2023-01-13T07:07:30.409Z,20.47
2023-01-13T07:10:02.592Z,20.40
2023-01-13T07:12:53.295Z,17.33
2023-01-13T07:15:22.580Z,14.87
2023-01-13T07:17:52.373Z,13.80
2023-01-13T07:20:22.899Z,16.77
2023-01-13T07:22:57.018Z,14.13
2023-01-13T07:25:28.972Z,16.80
2023-01-13T07:28:00.632Z,25.10
2023-01-13T07:30:30.771Z,20.23
2023-01-13T07:33:01.383Z,19.93
2023-01-13T07:35:31.908Z,23.60
2023-01-13T07:38:02.035Z,28.77
2023-01-13T07:40:33.729Z,24.07
2023-01-13T07:43:21.621Z,24.77
2023-01-13T07:45:51.700Z,22.23
2023-01-13T07:48:21.661Z,19.20
2023-01-13T07:50:51.984Z,19.57
2023-01-13T07:53:25.172Z,18.07
2023-01-13T07:56:00.209Z,20.27
2023-01-13T07:58:31.133Z,27.57
2023-01-13T08:01:01.448Z,34.03
2023-01-13T08:03:31.682Z,38.73
2023-01-13T08:06:03.756Z,32.13
2023-01-13T08:08:33.876Z,27.60
2023-01-13T08:11:07.773Z,35.40
2023-01-13T08:13:38.622Z,39.70
2023-01-13T08:16:11.098Z,39.50
2023-01-13T08:18:42.018Z,36.73
2023-01-13T08:21:14.307Z,39.00
2023-01-13T08:23:48.435Z,42.70
2023-01-13T08:26:21.896Z,38.90
2023-01-13T08:28:52.128Z,38.47
2023-01-13T08:31:22.628Z,34.77
2023-01-13T08:33:54.202Z,35.43
2023-01-13T08:36:29.366Z,33.83
2023-01-13T08:39:00.474Z,32.10
2023-01-13T08:41:49.363Z,25.67
2023-01-13T08:44:19.561Z,28.37
2023-01-13T08:46:49.685Z,27.47
2023-01-13T08:49:20.607Z,26.20
2023-01-13T08:51:51.862Z,24.00
2023-01-13T08:54:22.617Z,28.70
2023-01-13T08:56:56.910Z,25.33
2023-01-13T08:59:29.499Z,29.33
2023-01-13T09:02:00.229Z,25.30
2023-01-13T09:04:31.426Z,32.60
2023-01-13T09:07:03.647Z,30.10
2023-01-13T09:09:34.904Z,27.80
2023-01-13T09:12:25.285Z,30.77
2023-01-13T09:14:55.919Z,32.37
2023-01-13T09:17:26.144Z,41.70
2023-01-13T09:19:56.779Z,34.43
2023-01-13T09:22:27.903Z,39.27
2023-01-13T09:24:58.447Z,41.60
2023-01-13T09:27:32.048Z,39.63
2023-01-13T09:30:04.925Z,40.57
2023-01-13T09:32:35.444Z,37.20
2023-01-13T09:35:05.270Z,36.73
2023-01-13T09:37:37.038Z,34.33
2023-01-13T09:40:13.497Z,34.47
2023-01-13T09:43:08.281Z,34.93
2023-01-13T09:45:44.852Z,34.17
2023-01-13T09:48:18.991Z,21.43
2023-01-13T09:50:59.161Z,25.77
2023-01-13T09:53:35.093Z,29.03
2023-01-13T09:56:09.499Z,24.13
2023-01-13T09:58:41.675Z,24.63
2023-01-13T10:01:22.187Z,23.50
2023-01-13T10:03:52.904Z,27.20
2023-01-13T10:06:33.730Z,29.77
2023-01-13T10:09:07.240Z,29.43
2023-01-13T10:11:59.878Z,29.60
2023-01-13T10:14:40.235Z,23.70
2023-01-13T10:17:21.218Z,21.70
2023-01-13T10:20:01.158Z,17.40
2023-01-13T10:22:47.877Z,20.03
2023-01-13T10:25:33.760Z,21.63
2023-01-13T10:28:11.049Z,16.67
2023-01-13T10:30:46.488Z,18.57
2023-01-13T10:33:19.362Z,17.87
2023-01-13T10:35:58.701Z,19.47
2023-01-13T10:38:31.497Z,18.70
2023-01-13T10:41:04.265Z,19.23
2023-01-13T10:43:34.695Z,17.00
2023-01-13T10:46:09.070Z,17.43
2023-01-13T10:48:44.162Z,15.73
2023-01-13T10:51:27.371Z,16.10
2023-01-13T10:54:06.513Z,16.57
2023-01-13T10:56:37.758Z,15.80
2023-01-13T10:59:20.158Z,17.40
2023-01-13T11:02:03.947Z,15.93
2023-01-13T11:04:40.054Z,16.43
2023-01-13T11:07:26.831Z,18.53
2023-01-13T11:10:09.174Z,16.63
2023-01-13T11:12:48.610Z,17.23
2023-01-13T11:15:22.730Z,20.30
2023-01-13T11:18:01.247Z,20.23
2023-01-13T11:20:37.533Z,22.27
2023-01-13T11:23:16.079Z,22.27
2023-01-13T11:25:52.639Z,20.47
2023-01-13T11:28:41.284Z,20.93
2023-01-13T11:31:20.237Z,20.07
2023-01-13T11:33:58.175Z,18.87
2023-01-13T11:36:34.838Z,18.17
2023-01-13T11:39:14.894Z,18.10
2023-01-13T11:42:09.478Z,15.73
2023-01-13T11:44:44.426Z,17.07
2023-01-13T11:47:16.698Z,17.53
2023-01-13T11:49:49.153Z,17.77
2023-01-13T11:52:24.195Z,19.03
2023-01-13T11:55:08.256Z,15.50
2023-01-13T11:58:07.749Z,15.13
2023-01-13T12:00:55.087Z,16.40
2023-01-13T12:03:33.689Z,17.90
2023-01-13T12:06:22.966Z,15.03
2023-01-13T12:09:12.335Z,16.67
2023-01-13T12:12:12.349Z,15.40
2023-01-13T12:14:54.763Z,15.80
2023-01-13T12:17:35.005Z,14.77
2023-01-13T12:20:23.256Z,14.00
2023-01-13T12:22:58.824Z,13.00
2023-01-13T12:25:37.628Z,13.33
2023-01-13T12:28:14.192Z,15.07
2023-01-13T12:30:48.651Z,10.93
2023-01-13T12:33:27.329Z,13.00
2023-01-13T12:36:04.626Z,10.73
2023-01-13T12:38:39.565Z,12.53
2023-01-13T12:41:19.471Z,13.97
2023-01-13T12:44:08.765Z,15.03
2023-01-13T12:46:54.657Z,11.17
2023-01-13T12:49:31.236Z,11.43
2023-01-13T12:52:17.114Z,11.50
2023-01-13T12:55:21.956Z,11.03
2023-01-13T12:58:04.665Z,10.77
2023-01-13T13:00:38.957Z,11.33
2023-01-13T13:03:32.974Z,14.20
2023-01-13T13:06:19.785Z,11.80
2023-01-13T13:09:20.099Z,10.27
2023-01-13T13:12:09.166Z,14.93
2023-01-13T13:15:07.759Z,13.33
2023-01-13T13:18:09.541Z,10.77
2023-01-13T13:20:56.342Z,11.67
2023-01-13T13:23:44.694Z,12.37
2023-01-13T13:26:43.056Z,15.33
2023-01-13T13:29:32.835Z,12.03
2023-01-13T13:32:47.048Z,12.03
2023-01-13T13:35:37.052Z,16.07
2023-01-13T13:38:40.250Z,23.53
2023-01-13T13:41:35.513Z,14.93
2023-01-13T13:44:32.624Z,17.67
2023-01-13T13:47:06.839Z,17.07
2023-01-13T13:49:44.636Z,16.87
2023-01-13T13:52:26.292Z,14.13
2023-01-13T13:55:00.222Z,15.80
2023-01-13T13:57:35.932Z,14.70
2023-01-13T14:00:20.045Z,15.23
2023-01-13T14:03:01.049Z,19.03
2023-01-13T14:05:32.683Z,18.30
2023-01-13T14:08:05.608Z,45.83
2023-01-13T14:10:37.220Z,21.97
2023-01-13T14:13:18.248Z,99.23
2023-01-13T14:15:50.994Z,42.47
2023-01-13T14:18:25.639Z,18.73
2023-01-13T14:20:57.799Z,14.83
2023-01-13T14:23:31.711Z,90.10
2023-01-13T14:26:05.684Z,32.57
2023-01-13T14:28:39.608Z,17.60
2023-01-13T14:31:11.523Z,14.53
2023-01-13T14:33:46.598Z,15.43
2023-01-13T14:36:19.894Z,10.80
2023-01-13T14:38:52.156Z,13.13
2023-01-13T14:41:28.453Z,12.00
2023-01-13T14:44:02.331Z,11.40
2023-01-13T14:46:42.793Z,12.73
2023-01-13T14:49:25.903Z,10.80
2023-01-13T14:51:56.847Z,10.43
2023-01-13T14:54:47.452Z,11.03
2023-01-13T14:57:28.537Z,11.93
2023-01-13T15:00:04.489Z,18.27
2023-01-13T15:02:47.066Z,13.43
2023-01-13T15:05:48.261Z,17.93
2023-01-13T15:08:41.800Z,18.03
2023-01-13T15:11:26.878Z,14.50
2023-01-13T15:14:03.338Z,12.37
2023-01-13T15:16:35.016Z,13.07
2023-01-13T15:19:05.428Z,16.77
2023-01-13T15:21:37.276Z,13.40
2023-01-13T15:24:11.083Z,15.97
2023-01-13T15:26:41.618Z,16.73
2023-01-13T15:29:16.131Z,21.03
2023-01-13T15:31:46.356Z,29.20
2023-01-13T15:34:18.936Z,37.60
2023-01-13T15:36:51.516Z,27.23
2023-01-13T15:39:23.228Z,30.83
2023-01-13T15:42:10.075Z,33.03
2023-01-13T15:44:58.016Z,24.97
2023-01-13T15:47:29.868Z,28.23
2023-01-13T15:50:00.720Z,25.40
2023-01-13T15:52:35.438Z,21.03
2023-01-13T15:55:06.061Z,20.00
2023-01-13T15:57:39.666Z,19.73
2023-01-13T16:00:17.069Z,38.10
2023-01-13T16:02:49.027Z,25.83
2023-01-13T16:05:19.635Z,23.03
2023-01-13T16:07:51.417Z,27.57
2023-01-13T16:10:26.960Z,24.17
2023-01-13T16:12:58.106Z,23.77
2023-01-13T16:15:28.225Z,29.13
2023-01-13T16:18:00.817Z,32.13
2023-01-13T16:20:32.695Z,44.77
2023-01-13T16:23:05.146Z,44.43
2023-01-13T16:25:35.999Z,27.23
2023-01-13T16:28:07.201Z,29.20
2023-01-13T16:30:39.319Z,32.07
2023-01-13T16:33:09.856Z,39.13
2023-01-13T16:35:43.975Z,41.77
2023-01-13T16:38:33.546Z,45.77
2023-01-13T16:41:04.175Z,40.93
2023-01-13T16:43:35.039Z,39.10
2023-01-13T16:46:19.901Z,41.60
2023-01-13T16:48:53.604Z,44.77
2023-01-13T16:51:25.559Z,39.20
2023-01-13T16:53:58.545Z,34.50
2023-01-13T16:56:31.129Z,58.67
2023-01-13T16:59:06.582Z,59.33
2023-01-13T17:01:39.012Z,55.20
2023-01-13T17:04:14.603Z,53.27
2023-01-13T17:06:49.255Z,50.10
2023-01-13T17:09:25.791Z,36.67
2023-01-13T17:11:56.741Z,38.67
2023-01-13T17:14:27.976Z,40.63
2023-01-13T17:16:59.538Z,48.97
2023-01-13T17:19:32.108Z,43.20
2023-01-13T17:22:02.313Z,44.43
2023-01-13T17:24:35.616Z,42.03
2023-01-13T17:27:07.174Z,34.37
2023-01-13T17:29:38.007Z,43.77
2023-01-13T17:32:09.050Z,41.47
2023-01-13T17:34:41.007Z,36.00
2023-01-13T17:37:14.526Z,39.53
2023-01-13T17:39:48.872Z,42.03
2023-01-13T17:42:19.676Z,49.57
2023-01-13T17:44:51.339Z,48.93
2023-01-13T17:47:23.489Z,48.53
2023-01-13T17:49:53.860Z,44.67
2023-01-13T17:52:24.956Z,42.40
2023-01-13T17:54:58.046Z,56.97
2023-01-13T17:57:29.592Z,51.03
2023-01-13T18:00:00.157Z,57.23
2023-01-13T18:02:30.761Z,59.07
2023-01-13T18:05:01.385Z,56.17
2023-01-13T18:07:32.023Z,46.03
2023-01-13T18:10:04.097Z,45.50
2023-01-13T18:12:35.350Z,42.93
2023-01-13T18:15:05.943Z,47.23
2023-01-13T18:17:36.164Z,46.87
2023-01-13T18:20:24.044Z,52.40
2023-01-13T18:23:10.814Z,79.87
2023-01-13T18:26:01.004Z,50.13
2023-01-13T18:28:31.117Z,45.00
2023-01-13T18:31:01.147Z,47.87
2023-01-13T18:33:31.360Z,50.07
2023-01-13T18:36:01.587Z,45.27
2023-01-13T18:38:32.009Z,46.63
2023-01-13T18:41:26.618Z,41.37
2023-01-13T18:43:55.704Z,55.60
2023-01-13T18:46:25.709Z,57.70
2023-01-13T18:48:58.486Z,46.93
2023-01-13T18:51:28.441Z,40.97
2023-01-13T18:53:59.156Z,43.60
2023-01-13T18:56:31.621Z,42.80
2023-01-13T18:59:03.686Z,40.73
2023-01-13T19:01:34.668Z,45.10
2023-01-13T19:04:10.878Z,53.33
2023-01-13T19:06:51.039Z,51.93
2023-01-13T19:09:25.263Z,44.07
2023-01-13T19:11:58.429Z,42.10
2023-01-13T19:14:38.386Z,41.50
2023-01-13T19:17:11.277Z,44.57
2023-01-13T19:19:42.938Z,54.83
2023-01-13T19:22:14.589Z,40.67
2023-01-13T19:24:44.907Z,42.13
2023-01-13T19:27:18.623Z,41.33
2023-01-13T19:29:52.510Z,47.07
2023-01-13T19:32:25.101Z,64.10
2023-01-13T19:34:55.723Z,58.60
2023-01-13T19:37:30.604Z,43.97
2023-01-13T19:40:01.609Z,44.37
2023-01-13T19:42:50.870Z,47.93
2023-01-13T19:45:32.566Z,39.97
2023-01-13T19:48:05.931Z,38.50
2023-01-13T19:50:42.116Z,36.03
2023-01-13T19:53:19.089Z,38.97
2023-01-13T19:55:50.346Z,41.53
2023-01-13T19:58:24.662Z,37.10
2023-01-13T20:00:56.251Z,34.43
2023-01-13T20:03:31.956Z,38.03
2023-01-13T20:06:09.463Z,37.50
2023-01-13T20:08:40.611Z,37.47
2023-01-13T20:11:31.606Z,31.83
2023-01-13T20:14:06.854Z,30.13
2023-01-13T20:16:37.683Z,29.87
2023-01-13T20:19:09.025Z,28.40
2023-01-13T20:21:40.483Z,30.97
2023-01-13T20:24:17.557Z,27.60
2023-01-13T20:26:49.005Z,32.23
2023-01-13T20:29:21.803Z,33.53
2023-01-13T20:31:54.374Z,32.10
2023-01-13T20:34:25.407Z,29.37
2023-01-13T20:36:56.554Z,24.20
2023-01-13T20:39:28.656Z,21.67
2023-01-13T20:42:16.861Z,24.20
2023-01-13T20:44:53.122Z,20.50
2023-01-13T20:47:24.577Z,17.53
2023-01-13T20:49:55.509Z,17.10
2023-01-13T20:52:26.445Z,23.37
2023-01-13T20:54:58.113Z,30.60
2023-01-13T20:57:28.941Z,25.47
2023-01-13T21:00:02.868Z,19.93
2023-01-13T21:02:33.792Z,14.43
2023-01-13T21:05:05.337Z,12.90
2023-01-13T21:07:35.770Z,13.27
2023-01-13T21:10:07.527Z,15.30
2023-01-13T21:12:55.263Z,18.37
2023-01-13T21:15:28.547Z,23.53
2023-01-13T21:18:17.209Z,17.60
2023-01-13T21:20:48.136Z,14.50
2023-01-13T21:23:20.917Z,15.83
2023-01-13T21:25:51.665Z,19.13
2023-01-13T21:28:22.392Z,17.03
2023-01-13T21:30:55.068Z,14.90
2023-01-13T21:33:25.908Z,13.93
2023-01-13T21:35:56.532Z,13.90
2023-01-13T21:38:29.434Z,12.83
2023-01-13T21:41:06.408Z,13.17
2023-01-13T21:43:57.111Z,14.03
2023-01-13T21:46:45.958Z,14.13
2023-01-13T21:49:16.299Z,14.40
2023-01-13T21:51:46.718Z,14.23
2023-01-13T21:54:16.935Z,15.27
2023-01-13T21:56:46.944Z,15.90
2023-01-13T21:59:17.780Z,16.00
2023-01-13T22:02:24.011Z,16.87
2023-01-13T22:04:40.037Z,18.90
2023-01-13T22:07:11.286Z,32.83
2023-01-13T22:09:41.602Z,49.37
2023-01-13T22:12:11.754Z,100.50
2023-01-13T22:14:42.356Z,67.93
2023-01-13T22:17:16.990Z,25.70
2023-01-13T22:19:48.236Z,23.93
2023-01-13T22:22:19.474Z,20.43
2023-01-13T22:24:51.022Z,18.00
2023-01-13T22:27:23.200Z,15.67
2023-01-13T22:29:54.954Z,13.03
2023-01-13T22:32:27.027Z,13.17
2023-01-13T22:34:58.500Z,13.70
2023-01-13T22:37:29.210Z,12.07
2023-01-13T22:40:01.309Z,11.47
2023-01-13T22:42:31.588Z,11.37
2023-01-13T22:45:04.292Z,12.73
2023-01-13T22:47:36.539Z,11.60
2023-01-13T22:50:09.294Z,11.53
2023-01-13T22:52:39.785Z,10.70
2023-01-13T22:55:10.585Z,11.27
2023-01-13T22:57:47.718Z,11.07
2023-01-13T23:00:20.235Z,20.97
2023-01-13T23:02:52.504Z,16.57
2023-01-13T23:05:23.134Z,12.63
2023-01-13T23:07:56.434Z,11.30
2023-01-13T23:10:26.656Z,12.17
2023-01-13T23:12:56.845Z,10.30
2023-01-13T23:15:27.908Z,11.30
2023-01-13T23:17:59.975Z,10.53
2023-01-13T23:20:31.014Z,10.90
2023-01-13T23:23:01.139Z,10.47
2023-01-13T23:25:34.358Z,10.33
2023-01-13T23:28:04.756Z,9.83
2023-01-13T23:30:35.089Z,9.93
2023-01-13T23:33:07.059Z,9.33
2023-01-13T23:35:37.675Z,11.87
2023-01-13T23:38:08.106Z,9.70
2023-01-13T23:40:39.034Z,10.47
2023-01-13T23:43:09.459Z,9.87
2023-01-13T23:45:39.784Z,10.00
2023-01-13T23:48:11.745Z,13.43
2023-01-13T23:50:42.277Z,9.87
2023-01-13T23:53:13.026Z,10.70
2023-01-13T23:55:43.275Z,14.60
2023-01-13T23:58:13.455Z,18.83
